Bristol, Georgia
Current Conditions -  °F | °C
As of 2:55 AM on Sunday 26 Oct 2014 (Local Time) from KAYS Reporting Station
Clear Clear  
Wind Chill: 11°   Ceiling: Unl
Heat Index: 11°   Visibility: 10mi
Dew Point: 11°   Wind: 0mph
Humidity: 94%   Direction: NA
Pressure: 29.98"   Gusts: NA
Location:  31.45°N, 82.21°W
Report Text: KAYS 260655Z AUTO 00000KT 10SM CLR 12/11 A2998 RMK AO2 T01150105
Loading
Personal Weather Stations






























Interactive Weather Map
Tropical Storm Tracking
New forecast layout! Learn more

10-Day Weather Forecast

Advertisements
Track Severe Weather on mobile